Time;durP1;ratioP1;P1;durP2;ratioP2;P2;SDS_P1;SDS_P2;PMS_P1;PMS_P2;Temp;Humidity;BMP_temperature;BMP_pressure;BME280_temperature;BME280_humidity;BME280_pressure;Samples;Min_cycle;Max_cycle;Signal;HPM_P1;HPM_P2
2022/09/14 00:01:20;;;;;;;3.27;2.07;;;12.50;99.90;;;;;;4987792;28;20214;-85
2022/09/14 00:03:46;;;;;;;4.83;2.43;;;12.30;99.90;;;;;;5002647;28;20239;-86
2022/09/14 00:06:14;;;;;;;5.33;2.40;;;12.30;99.90;;;;;;4986165;28;20727;-86
2022/09/14 00:08:41;;;;;;;5.47;2.10;;;12.20;99.90;;;;;;4986569;28;20192;-86
2022/09/14 00:11:10;;;;;;;4.63;1.90;;;12.30;99.90;;;;;;4986368;28;20238;-86
2022/09/14 00:13:37;;;;;;;5.70;1.93;;;12.30;99.90;;;;;;4986367;28;20602;-85
2022/09/14 00:16:05;;;;;;;4.57;2.35;;;12.40;99.90;;;;;;4986357;28;20211;-85
2022/09/14 00:18:32;;;;;;;5.30;1.80;;;12.30;99.90;;;;;;4987827;28;20226;-85
2022/09/14 00:21:02;;;;;;;8.20;2.40;;;12.20;99.90;;;;;;4986282;28;20275;-86
2022/09/14 00:23:28;;;;;;;5.80;2.75;;;12.00;99.90;;;;;;4986113;28;20203;-86
2022/09/14 00:25:54;;;;;;;3.08;2.08;;;11.90;99.90;;;;;;4986163;28;20237;-86
2022/09/14 00:28:20;;;;;;;4.97;2.17;;;11.90;99.90;;;;;;4985597;28;20180;-85
2022/09/14 00:30:46;;;;;;;7.10;2.60;;;11.90;99.90;;;;;;4987511;28;20181;-85
2022/09/14 00:33:12;;;;;;;4.80;2.00;;;12.00;99.90;;;;;;4985944;28;20552;-86
2022/09/14 00:35:38;;;;;;;6.03;1.93;;;12.00;99.90;;;;;;4987522;28;20207;-85
2022/09/14 00:38:03;;;;;;;3.87;1.73;;;11.90;99.90;;;;;;4987575;28;20190;-85
2022/09/14 00:40:29;;;;;;;4.43;2.23;;;11.70;99.90;;;;;;4985677;28;20230;-86
2022/09/14 00:42:54;;;;;;;8.20;2.33;;;11.70;99.90;;;;;;4986037;28;20584;-85
2022/09/14 00:45:21;;;;;;;4.07;1.83;;;11.80;99.90;;;;;;4985783;28;20651;-85
2022/09/14 00:47:51;;;;;;;5.13;2.07;;;11.70;99.90;;;;;;4986154;28;20184;-85
2022/09/14 00:50:17;;;;;;;5.47;2.50;;;11.80;99.90;;;;;;4986209;28;20192;-85
2022/09/14 00:52:46;;;;;;;7.17;2.30;;;11.70;99.90;;;;;;5001927;28;20192;-86
2022/09/14 00:55:15;;;;;;;3.23;2.00;;;11.70;99.90;;;;;;4985933;28;20243;-86
2022/09/14 00:57:45;;;;;;;5.90;2.20;;;11.70;99.90;;;;;;4986061;28;20180;-86
2022/09/14 01:00:13;;;;;;;4.10;2.07;;;11.90;99.90;;;;;;4985424;28;20184;-85
2022/09/14 01:02:39;;;;;;;3.70;1.70;;;11.70;99.90;;;;;;4987297;28;20188;-86
2022/09/14 01:05:06;;;;;;;6.13;2.10;;;11.60;99.90;;;;;;4985903;28;20215;-86
2022/09/14 01:07:52;;;;;;;5.27;1.97;;;11.60;99.90;;;;;;4987365;28;20604;-86
2022/09/14 01:10:20;;;;;;;5.40;1.80;;;11.60;99.90;;;;;;5002229;28;20259;-85
2022/09/14 01:13:05;;;;;;;5.47;1.97;;;11.60;99.90;;;;;;5002013;28;20184;-85
2022/09/14 01:15:55;;;;;;;4.30;2.00;;;11.60;99.90;;;;;;4985592;28;20331;-86
2022/09/14 01:18:28;;;;;;;3.43;1.77;;;11.60;99.90;;;;;;5005108;28;20184;-85
2022/09/14 01:21:11;;;;;;;5.17;1.90;;;11.70;99.90;;;;;;4989725;28;20547;-85
2022/09/14 01:24:07;;;;;;;6.60;2.43;;;11.70;99.90;;;;;;4990830;28;20204;-86
2022/09/14 01:27:00;;;;;;;3.93;1.93;;;11.60;99.90;;;;;;4990652;28;20202;-85
2022/09/14 01:29:28;;;;;;;6.53;2.20;;;11.70;99.90;;;;;;5005596;28;20173;-86
2022/09/14 01:32:12;;;;;;;4.27;2.03;;;11.80;99.90;;;;;;4989289;28;20223;-86
2022/09/14 01:34:56;;;;;;;6.33;2.40;;;11.80;99.90;;;;;;4989192;28;20206;-85
2022/09/14 01:37:31;;;;;;;4.40;2.03;;;11.70;99.90;;;;;;4990988;28;20493;-85
2022/09/14 01:40:18;;;;;;;6.80;2.60;;;11.70;99.90;;;;;;4989544;28;20278;-85
2022/09/14 01:42:49;;;;;;;4.93;2.30;;;11.70;99.90;;;;;;4989324;28;20219;-84
2022/09/14 01:45:18;;;;;;;4.40;1.93;;;11.60;99.90;;;;;;4990553;28;20208;-85
2022/09/14 01:47:53;;;;;;;7.03;2.07;;;11.60;99.90;;;;;;4989694;28;20263;-85
2022/09/14 01:50:35;;;;;;;5.93;2.10;;;11.60;99.90;;;;;;4990924;28;20250;-87
2022/09/14 01:53:25;;;;;;;4.03;2.20;;;11.60;99.90;;;;;;4988994;28;20180;-85
2022/09/14 01:55:53;;;;;;;6.43;1.90;;;11.60;99.90;;;;;;4997663;28;20559;-86
2022/09/14 01:59:00;;;;;;;5.00;1.80;;;11.50;99.90;;;;;;5005640;28;20188;-86
2022/09/14 02:01:34;;;;;;;4.23;1.73;;;11.70;99.90;;;;;;4989239;28;20188;-86
2022/09/14 02:04:04;;;;;;;6.33;1.87;;;11.80;99.90;;;;;;4989150;28;20270;-85
2022/09/14 02:06:39;;;;;;;5.73;2.30;;;11.80;99.90;;;;;;5005145;28;21244;-85
2022/09/14 02:09:08;;;;;;;6.13;2.03;;;11.80;99.90;;;;;;4989465;28;20194;-86
2022/09/14 02:11:39;;;;;;;3.63;1.73;;;11.80;99.90;;;;;;4988468;28;20173;-85
2022/09/14 02:14:05;;;;;;;5.80;1.43;;;11.80;99.90;;;;;;4988185;28;20185;-85
2022/09/14 02:16:31;;;;;;;3.27;1.53;;;11.70;99.90;;;;;;4988702;28;20212;-85
2022/09/14 02:19:00;;;;;;;6.67;1.80;;;11.70;99.90;;;;;;4988255;28;20612;-86
2022/09/14 02:21:28;;;;;;;7.67;1.63;;;11.70;99.90;;;;;;4988084;28;20554;-85
2022/09/14 02:23:54;;;;;;;4.90;1.87;;;11.60;99.90;;;;;;4988015;28;20234;-85
2022/09/14 02:26:22;;;;;;;4.80;1.70;;;11.50;99.90;;;;;;4987826;28;20207;-86
2022/09/14 02:28:47;;;;;;;5.10;1.70;;;11.40;99.90;;;;;;4989334;28;20223;-85
2022/09/14 02:31:38;;;;;;;6.50;2.13;;;11.40;99.90;;;;;;4988506;28;20611;-86
2022/09/14 02:34:19;;;;;;;7.33;2.53;;;11.40;99.90;;;;;;5004352;28;20176;-85
2022/09/14 02:37:02;;;;;;;6.97;2.13;;;11.40;99.90;;;;;;4988014;28;20230;-85
2022/09/14 02:39:53;;;;;;;6.47;2.10;;;11.30;99.90;;;;;;4987640;28;20271;-85
2022/09/14 02:43:16;;;;;;;6.63;2.20;;;11.30;99.90;;;;;;4988065;28;20680;-85
2022/09/14 02:46:21;;;;;;;6.17;2.20;;;11.30;99.90;;;;;;4969055;28;20290;-85
2022/09/14 02:49:00;;;;;;;6.80;2.60;;;11.30;99.90;;;;;;4985963;28;20192;-86
2022/09/14 02:52:04;;;;;;;7.87;2.30;;;11.20;99.90;;;;;;4983884;28;21251;-85
2022/09/14 02:54:35;;;;;;;9.10;2.57;;;11.20;99.90;;;;;;4981707;28;20188;-86
2022/09/14 02:57:02;;;;;;;7.17;2.70;;;11.10;99.90;;;;;;4989163;28;20204;-86
2022/09/14 02:59:28;;;;;;;6.93;2.73;;;11.00;99.90;;;;;;4987950;28;20662;-86
2022/09/14 03:01:54;;;;;;;6.93;2.67;;;10.90;99.90;;;;;;4987409;28;20218;-85
2022/09/14 03:04:20;;;;;;;3.90;2.30;;;10.80;99.90;;;;;;4987645;28;20208;-85
2022/09/14 03:06:46;;;;;;;8.83;2.37;;;11.00;99.90;;;;;;4987486;28;20208;-85
2022/09/14 03:09:11;;;;;;;6.63;2.40;;;11.10;99.90;;;;;;4988767;28;20230;-85
2022/09/14 03:11:37;;;;;;;5.90;2.43;;;11.10;99.90;;;;;;4988769;28;20184;-85
2022/09/14 03:14:02;;;;;;;5.67;2.30;;;11.10;99.90;;;;;;4987602;28;20194;-86
2022/09/14 03:16:28;;;;;;;8.73;2.87;;;11.10;99.90;;;;;;4987217;28;20200;-85
2022/09/14 03:18:53;;;;;;;7.50;2.10;;;11.20;99.90;;;;;;4987214;28;20189;-86
2022/09/14 03:21:19;;;;;;;6.67;2.53;;;11.20;99.90;;;;;;4988612;28;20263;-86
2022/09/14 03:23:47;;;;;;;5.90;2.20;;;11.20;99.90;;;;;;5003007;28;20216;-85
2022/09/14 03:26:15;;;;;;;5.23;2.27;;;11.10;99.90;;;;;;5003438;28;20228;-85
2022/09/14 03:28:42;;;;;;;8.27;2.40;;;11.00;99.90;;;;;;4987322;28;20184;-86
2022/09/14 03:31:09;;;;;;;7.70;2.87;;;11.00;99.90;;;;;;4987153;28;20184;-86
2022/09/14 03:33:35;;;;;;;3.67;2.00;;;11.00;99.90;;;;;;4987458;28;20177;-85
2022/09/14 03:36:16;;;;;;;4.40;2.50;;;10.90;99.90;;;;;;4988651;28;20355;-89
2022/09/14 03:38:46;;;;;;;7.03;2.50;;;10.80;99.90;;;;;;4987579;28;20207;-86
2022/09/14 03:41:13;;;;;;;5.53;2.27;;;10.80;99.90;;;;;;4986327;28;20267;-85
2022/09/14 03:43:39;;;;;;;5.53;2.33;;;10.80;99.90;;;;;;4986834;28;20192;-85
2022/09/14 03:46:22;;;;;;;7.43;2.80;;;10.70;99.90;;;;;;4986885;28;20200;-87
2022/09/14 03:48:48;;;;;;;5.57;2.20;;;10.90;99.90;;;;;;4988052;28;20180;-86
2022/09/14 03:51:15;;;;;;;7.97;2.33;;;10.90;99.90;;;;;;4987153;28;20211;-86
2022/09/14 03:53:42;;;;;;;5.67;2.67;;;10.80;99.90;;;;;;4986915;28;20658;-85
2022/09/14 03:56:09;;;;;;;5.10;2.37;;;10.80;99.90;;;;;;4986676;28;20757;-86
2022/09/14 03:58:35;;;;;;;5.33;2.33;;;10.80;99.90;;;;;;4986093;28;20184;-85
2022/09/14 04:01:06;;;;;;;7.23;2.43;;;10.90;99.90;;;;;;4986419;28;20258;-85
2022/09/14 04:03:32;;;;;;;4.83;2.30;;;10.80;99.90;;;;;;4987411;28;20185;-85
2022/09/14 04:05:58;;;;;;;5.30;3.00;;;10.80;99.90;;;;;;4986537;28;20211;-85
2022/09/14 04:08:23;;;;;;;4.30;2.23;;;10.80;99.90;;;;;;4986727;28;20263;-85
2022/09/14 04:10:49;;;;;;;4.47;2.20;;;10.80;99.90;;;;;;4986562;28;20284;-85
2022/09/14 04:13:14;;;;;;;2.63;2.03;;;10.70;99.90;;;;;;4987592;28;20219;-86
2022/09/14 04:15:41;;;;;;;3.57;2.40;;;10.70;99.90;;;;;;4985960;28;20208;-85
2022/09/14 04:18:08;;;;;;;6.03;2.30;;;10.70;99.90;;;;;;4985888;28;20265;-86
2022/09/14 04:20:34;;;;;;;4.63;2.50;;;10.70;99.90;;;;;;4987082;28;20633;-86
2022/09/14 04:23:08;;;;;;;6.80;2.67;;;10.60;99.90;;;;;;4985786;28;20228;-87
2022/09/14 04:25:35;;;;;;;6.50;2.50;;;10.60;99.90;;;;;;5002155;28;20199;-85
2022/09/14 04:28:01;;;;;;;4.90;2.63;;;10.50;99.90;;;;;;4986977;28;20187;-86
2022/09/14 04:30:30;;;;;;;8.03;3.43;;;10.50;99.90;;;;;;4986448;28;20180;-86
2022/09/14 04:32:55;;;;;;;5.10;2.67;;;10.50;99.90;;;;;;4986321;28;20194;-85
2022/09/14 04:35:28;;;;;;;2.97;2.60;;;10.50;99.90;;;;;;4986015;28;20207;-85
2022/09/14 04:37:54;;;;;;;4.80;2.70;;;10.70;99.90;;;;;;4985459;28;20208;-86
2022/09/14 04:40:27;;;;;;;7.20;3.40;;;10.60;99.90;;;;;;4987151;28;20184;-85
2022/09/14 04:42:58;;;;;;;8.47;3.20;;;10.60;99.90;;;;;;4985872;28;20670;-86
2022/09/14 04:45:24;;;;;;;6.50;3.30;;;10.60;99.90;;;;;;4986566;28;20298;-85
2022/09/14 04:47:52;;;;;;;6.43;2.70;;;10.70;99.90;;;;;;4986038;28;20304;-85
2022/09/14 04:50:18;;;;;;;5.10;2.70;;;10.90;99.90;;;;;;4987222;28;20192;-85
2022/09/14 04:52:45;;;;;;;5.97;2.70;;;10.90;99.90;;;;;;4985856;28;20187;-87
2022/09/14 04:55:10;;;;;;;7.30;3.03;;;10.80;99.90;;;;;;4984418;28;20208;-87
2022/09/14 04:57:37;;;;;;;4.67;2.90;;;10.80;99.90;;;;;;4986370;28;20191;-85
2022/09/14 05:00:03;;;;;;;5.00;2.47;;;10.90;99.90;;;;;;4987269;28;20658;-85
2022/09/14 05:02:30;;;;;;;6.57;2.93;;;11.00;99.90;;;;;;5002067;28;20188;-85
2022/09/14 05:04:57;;;;;;;7.07;2.80;;;11.10;99.90;;;;;;4985982;28;20203;-86
2022/09/14 05:07:23;;;;;;;5.97;2.37;;;11.10;99.90;;;;;;4987082;28;20208;-85
2022/09/14 05:09:49;;;;;;;6.63;2.50;;;11.10;99.90;;;;;;4986036;28;20602;-85
2022/09/14 05:12:14;;;;;;;5.93;2.53;;;11.10;99.90;;;;;;4986881;28;20210;-86
2022/09/14 05:14:40;;;;;;;5.57;1.97;;;11.00;99.90;;;;;;4985684;28;20267;-88
2022/09/14 05:17:05;;;;;;;4.43;2.10;;;11.00;99.90;;;;;;4985575;28;20250;-86
2022/09/14 05:19:31;;;;;;;3.63;2.30;;;11.10;99.90;;;;;;4985788;28;20188;-86
2022/09/14 05:21:56;;;;;;;5.23;2.63;;;11.10;99.90;;;;;;4985339;28;20199;-88
2022/09/14 05:24:22;;;;;;;5.47;2.07;;;11.10;99.90;;;;;;4985769;28;20209;-86
2022/09/14 05:26:51;;;;;;;5.27;2.63;;;11.10;99.90;;;;;;4985337;28;20215;-86
2022/09/14 05:29:17;;;;;;;5.43;2.53;;;11.10;99.90;;;;;;4985280;28;20172;-86
2022/09/14 05:31:44;;;;;;;8.93;2.83;;;11.50;99.90;;;;;;4984645;28;20199;-86
2022/09/14 05:34:10;;;;;;;7.73;2.73;;;11.10;99.90;;;;;;4985384;28;20188;-86
2022/09/14 05:36:37;;;;;;;5.00;2.67;;;11.20;99.90;;;;;;4985506;28;20201;-86
2022/09/14 05:39:03;;;;;;;6.63;2.30;;;11.20;99.90;;;;;;4983947;28;20196;-86
2022/09/14 05:41:29;;;;;;;4.87;2.47;;;11.20;99.90;;;;;;4985198;28;20199;-86
2022/09/14 05:43:54;;;;;;;6.53;2.47;;;11.30;99.90;;;;;;4985376;28;20189;-88
2022/09/14 05:46:21;;;;;;;4.67;2.20;;;11.40;99.90;;;;;;4985337;28;20212;-86
2022/09/14 05:48:50;;;;;;;6.83;2.57;;;11.40;99.90;;;;;;4985404;28;20628;-88
2022/09/14 05:51:18;;;;;;;7.37;2.13;;;11.50;99.90;;;;;;4985117;28;20196;-86
2022/09/14 05:53:55;;;;;;;6.60;2.20;;;11.50;99.90;;;;;;4985737;28;20296;-86
2022/09/14 05:56:22;;;;;;;4.07;2.20;;;11.60;99.90;;;;;;4986798;28;20212;-85
2022/09/14 05:58:49;;;;;;;7.50;2.20;;;11.70;99.90;;;;;;4985103;28;20199;-85
2022/09/14 06:01:17;;;;;;;5.33;2.30;;;11.70;99.90;;;;;;4985322;28;20188;-85
2022/09/14 06:03:44;;;;;;;5.77;2.30;;;11.80;99.90;;;;;;4988166;28;20180;-86
2022/09/14 06:06:12;;;;;;;4.70;2.80;;;11.80;99.90;;;;;;5004436;28;20690;-85
2022/09/14 06:08:38;;;;;;;8.07;2.70;;;11.80;99.90;;;;;;4990092;28;20191;-86
2022/09/14 06:11:09;;;;;;;6.53;2.57;;;11.90;99.90;;;;;;4988824;28;20558;-87
2022/09/14 06:13:35;;;;;;;4.70;2.60;;;12.00;99.90;;;;;;4988986;28;20207;-86
2022/09/14 06:16:06;;;;;;;6.77;2.40;;;12.10;99.90;;;;;;4987731;28;20647;-86
2022/09/14 06:18:38;;;;;;;4.20;2.10;;;12.30;99.90;;;;;;4988629;28;20191;-86
2022/09/14 06:21:05;;;;;;;5.10;2.30;;;12.20;99.90;;;;;;4988581;28;20184;-87
2022/09/14 06:23:31;;;;;;;4.70;2.05;;;12.20;99.90;;;;;;4988992;28;20259;-86
2022/09/14 06:26:02;;;;;;;4.90;2.40;;;12.20;99.90;;;;;;4987848;28;20239;-86
2022/09/14 06:28:30;;;;;;;3.58;2.10;;;12.20;99.90;;;;;;4988429;28;20187;-86
2022/09/14 06:30:57;;;;;;;6.00;2.20;;;12.40;99.90;;;;;;4987702;28;20189;-89
2022/09/14 06:33:22;;;;;;;4.30;2.20;;;12.40;99.90;;;;;;4993429;28;20286;-91
2022/09/14 06:35:56;;;;;;;5.80;2.75;;;12.40;99.90;;;;;;4989873;28;20260;-87
2022/09/14 06:38:23;;;;;;;4.55;2.10;;;12.40;99.90;;;;;;5004046;28;20195;-86
2022/09/14 06:40:56;;;;;;;6.95;2.30;;;12.60;99.90;;;;;;4987984;28;20717;-86
2022/09/14 06:43:36;;;;;;;5.97;2.17;;;13.00;99.90;;;;;;4987582;28;20867;-87
2022/09/14 06:46:14;;;;;;;2.78;2.03;;;13.30;99.90;;;;;;4993964;28;20212;-86
2022/09/14 06:48:47;;;;;;;8.05;2.40;;;13.40;99.90;;;;;;4992928;28;20188;-86
2022/09/14 06:51:17;;;;;;;3.25;2.10;;;13.30;99.90;;;;;;4992916;28;20199;-86
2022/09/14 06:53:44;;;;;;;4.07;2.10;;;13.40;99.90;;;;;;4991510;28;20200;-86
2022/09/14 06:56:11;;;;;;;6.30;2.10;;;13.60;99.90;;;;;;4991742;28;20208;-86
2022/09/14 06:58:38;;;;;;;4.22;2.30;;;13.70;99.90;;;;;;4991401;28;20192;-86
2022/09/14 07:01:06;;;;;;;4.00;1.95;;;13.90;99.90;;;;;;4992285;28;20184;-87
2022/09/14 07:03:35;;;;;;;6.20;2.08;;;14.10;99.90;;;;;;4991576;28;20643;-86
2022/09/14 07:06:05;;;;;;;8.43;2.05;;;14.20;99.90;;;;;;4990262;28;20216;-86
2022/09/14 07:08:32;;;;;;;2.53;1.80;;;14.30;99.90;;;;;;5007887;28;20221;-86
2022/09/14 07:10:59;;;;;;;4.10;2.15;;;14.00;99.90;;;;;;4993692;28;20388;-86
2022/09/14 07:13:24;;;;;;;4.07;2.00;;;14.10;99.90;;;;;;4992658;28;20184;-86
2022/09/14 07:15:50;;;;;;;5.15;2.15;;;14.10;99.90;;;;;;4991388;28;20208;-86
2022/09/14 07:18:16;;;;;;;4.57;1.90;;;14.30;99.90;;;;;;4995480;28;20208;-87
2022/09/14 07:20:42;;;;;;;4.40;1.70;;;14.50;99.90;;;;;;4992967;28;20188;-86
2022/09/14 07:23:07;;;;;;;3.88;2.10;;;14.50;99.90;;;;;;4991426;28;20271;-86
2022/09/14 07:25:33;;;;;;;6.70;2.50;;;14.40;99.90;;;;;;4992663;28;20219;-86
2022/09/14 07:28:02;;;;;;;7.57;2.30;;;14.50;99.90;;;;;;4992438;28;20191;-86
2022/09/14 07:30:27;;;;;;;6.78;2.55;;;14.50;99.90;;;;;;4992522;28;20176;-87
2022/09/14 07:32:53;;;;;;;5.40;2.22;;;14.50;99.90;;;;;;4994026;28;20188;-87
2022/09/14 07:35:19;;;;;;;5.18;1.80;;;14.70;99.90;;;;;;4992830;28;20208;-86
2022/09/14 07:37:44;;;;;;;4.97;2.42;;;14.80;99.90;;;;;;4994325;28;20188;-87
2022/09/14 07:40:10;;;;;;;4.35;2.00;;;14.90;99.90;;;;;;4992707;28;20192;-86
2022/09/14 07:42:37;;;;;;;9.02;2.20;;;15.10;99.90;;;;;;4989327;28;20180;-86
2022/09/14 07:45:04;;;;;;;6.68;1.90;;;15.20;99.90;;;;;;4990915;28;20219;-86
2022/09/14 07:47:30;;;;;;;5.85;2.30;;;15.50;99.90;;;;;;4991919;28;20168;-86
2022/09/14 07:49:57;;;;;;;5.97;1.85;;;15.50;99.90;;;;;;5006784;28;20218;-86
2022/09/14 07:52:23;;;;;;;5.18;1.75;;;15.50;99.90;;;;;;4989658;28;20229;-86
2022/09/14 07:54:48;;;;;;;5.22;1.92;;;15.30;99.90;;;;;;4989932;28;20216;-86
2022/09/14 07:57:14;;;;;;;4.70;1.88;;;15.30;99.90;;;;;;4991074;28;20588;-86
2022/09/14 07:59:43;;;;;;;4.15;2.00;;;15.40;99.90;;;;;;4991055;28;20185;-85
2022/09/14 08:02:10;;;;;;;5.72;2.50;;;15.60;99.90;;;;;;4991492;28;20188;-86
2022/09/14 08:04:39;;;;;;;8.13;2.10;;;15.70;99.90;;;;;;4991555;28;20666;-86
2022/09/14 08:07:04;;;;;;;9.02;2.05;;;15.60;99.90;;;;;;4987889;28;20236;-85
2022/09/14 08:09:30;;;;;;;5.50;2.30;;;15.60;99.90;;;;;;4991352;28;20227;-86
2022/09/14 08:11:56;;;;;;;6.25;1.95;;;15.80;99.90;;;;;;4990812;28;20303;-86
2022/09/14 08:14:23;;;;;;;6.25;1.90;;;15.90;99.90;;;;;;4991603;28;20220;-87
2022/09/14 08:17:00;;;;;;;3.78;1.73;;;16.00;99.90;;;;;;4992132;28;20188;-86
2022/09/14 08:19:25;;;;;;;4.78;1.58;;;16.20;99.90;;;;;;4991988;28;20183;-86
2022/09/14 08:21:51;;;;;;;6.68;1.95;;;16.20;99.90;;;;;;4991870;28;20242;-86
2022/09/14 08:24:23;;;;;;;6.68;1.63;;;16.40;91.60;;;;;;4991075;28;20234;-86
2022/09/14 08:26:48;;;;;;;4.55;1.70;;;16.30;89.50;;;;;;5009746;22;20232;-89
2022/09/14 08:29:17;;;;;;;5.93;1.63;;;16.20;93.60;;;;;;4992260;28;20195;-86
2022/09/14 08:31:44;;;;;;;4.88;1.80;;;16.00;99.90;;;;;;4985936;28;20176;-85
2022/09/14 08:34:10;;;;;;;5.57;2.08;;;16.00;99.90;;;;;;4984692;28;20192;-86
2022/09/14 08:36:39;;;;;;;5.75;1.83;;;16.10;99.90;;;;;;4982215;28;20686;-86
2022/09/14 08:39:08;;;;;;;3.90;1.60;;;16.00;99.90;;;;;;4983729;28;20275;-86
2022/09/14 08:41:38;;;;;;;2.65;1.40;;;16.10;99.90;;;;;;4984222;28;20180;-84
2022/09/14 08:44:12;;;;;;;3.55;1.70;;;16.20;99.90;;;;;;4982695;28;20184;-85
2022/09/14 08:46:43;;;;;;;6.60;1.67;;;16.30;99.90;;;;;;4971716;28;20694;-85
2022/09/14 08:49:45;;;;;;;5.18;1.60;;;16.30;99.90;;;;;;4983163;28;20195;-85
2022/09/14 08:52:23;;;;;;;10.70;1.85;;;16.40;99.90;;;;;;4974705;28;20283;-87
2022/09/14 08:54:53;;;;;;;5.40;1.83;;;16.50;92.00;;;;;;4969451;28;20217;-87
2022/09/14 08:57:48;;;;;;;4.80;1.70;;;16.60;93.80;;;;;;4982032;28;20184;-87
2022/09/14 09:00:28;;;;;;;3.92;1.40;;;16.50;97.10;;;;;;4982729;28;20246;-87
2022/09/14 09:03:15;;;;;;;2.47;1.48;;;16.60;90.30;;;;;;4982594;28;20544;-88
2022/09/14 09:05:43;;;;;;;4.30;1.85;;;16.80;73.10;;;;;;4982511;28;20220;-86
2022/09/14 09:08:28;;;;;;;5.80;1.75;;;16.90;51.00;;;;;;4982677;28;20179;-87
2022/09/14 09:10:54;;;;;;;5.38;1.67;;;16.90;42.30;;;;;;4981811;28;20509;-88
2022/09/14 09:13:25;;;;;;;6.47;1.30;;;16.90;62.30;;;;;;4982003;28;20176;-87
2022/09/14 09:15:53;;;;;;;6.90;1.48;;;17.00;83.10;;;;;;4982813;28;20263;-87
2022/09/14 09:18:45;;;;;;;4.38;1.52;;;17.30;46.20;;;;;;4998858;28;20185;-87
2022/09/14 09:21:24;;;;;;;3.05;1.27;;;17.50;59.60;;;;;;4983051;28;20189;-88
2022/09/14 09:23:49;;;;;;;5.32;1.40;;;17.90;43.50;;;;;;4982580;28;20191;-88
2022/09/14 09:26:24;;;;;;;3.92;1.30;;;18.10;1.00;;;;;;4982352;28;20226;-88
2022/09/14 09:29:01;;;;;;;3.33;1.15;;;18.30;1.00;;;;;;4983748;28;20262;-88
2022/09/14 09:31:32;;;;;;;3.90;1.20;;;18.20;5.50;;;;;;4985900;28;20172;-88
2022/09/14 09:33:59;;;;;;;4.47;1.00;;;18.40;19.30;;;;;;4987322;28;20181;-88
2022/09/14 09:36:38;;;;;;;5.45;1.17;;;18.40;1.00;;;;;;4976245;28;20200;-87
2022/09/14 09:39:04;;;;;;;4.93;1.52;;;18.40;1.00;;;;;;4988414;28;20620;-87
2022/09/14 09:41:51;;;;;;;2.90;1.10;;;18.30;1.00;;;;;;4988961;28;20678;-89
2022/09/14 09:44:17;;;;;;;5.50;1.17;;;18.50;1.00;;;;;;4972332;28;20210;-88
2022/09/14 09:46:50;;;;;;;3.20;1.08;;;18.50;1.00;;;;;;4984034;28;20208;-88
2022/09/14 09:49:34;;;;;;;5.00;1.33;;;18.60;5.20;;;;;;4986599;28;20184;-88
2022/09/14 09:52:14;;;;;;;3.95;1.25;;;18.70;1.00;;;;;;4985116;28;20188;-88
2022/09/14 09:54:51;;;;;;;6.20;1.52;;;18.90;1.00;;;;;;4971856;28;20189;-88
2022/09/14 09:57:36;;;;;;;3.03;0.98;;;19.10;1.00;;;;;;4985324;28;20240;-88
2022/09/14 10:00:12;;;;;;;6.18;1.25;;;19.30;1.00;;;;;;4985902;28;20188;-87
2022/09/14 10:02:38;;;;;;;4.13;1.08;;;19.40;1.00;;;;;;4993345;28;20552;-87
2022/09/14 10:05:08;;;;;;;2.92;1.15;;;19.80;99.90;;;;;;4986638;28;20200;-87
2022/09/14 10:07:38;;;;;;;3.28;0.80;;;19.70;99.90;;;;;;4988330;28;20180;-88
2022/09/14 10:10:10;;;;;;;5.65;1.33;;;19.60;99.90;;;;;;4988734;28;20219;-88
2022/09/14 10:12:39;;;;;;;3.78;1.08;;;20.00;99.90;;;;;;4983092;28;20722;-88
2022/09/14 10:15:07;;;;;;;2.67;0.98;;;20.10;99.90;;;;;;4980967;28;20701;-88
2022/09/14 10:17:33;;;;;;;2.28;1.10;;;20.10;94.20;;;;;;4982472;28;20263;-88
2022/09/14 10:19:59;;;;;;;3.40;1.30;;;20.40;1.00;;;;;;4987562;28;20180;-87
2022/09/14 10:22:36;;;;;;;3.35;1.17;;;20.50;99.90;;;;;;4986670;28;20279;-87
2022/09/14 10:25:18;;;;;;;3.15;1.20;;;20.60;1.00;;;;;;4987029;28;20250;-88
2022/09/14 10:27:55;;;;;;;2.47;0.90;;;20.70;99.90;;;;;;4995571;28;20202;-87
2022/09/14 10:30:24;;;;;;;6.03;1.77;;;20.80;99.90;;;;;;4981583;28;20674;-87
2022/09/14 10:33:01;;;;;;;4.63;1.17;;;20.70;99.90;;;;;;4977939;28;20782;-89
2022/09/14 10:36:08;;;;;;;3.72;1.05;;;20.70;1.00;;;;;;4974283;28;21663;-88
2022/09/14 10:38:51;;;;;;;2.80;1.27;;;20.70;1.00;;;;;;4913060;29;20204;-88
2022/09/14 10:41:30;;;;;;;3.22;1.10;;;20.50;1.00;;;;;;4989042;28;20274;-86
2022/09/14 10:44:08;;;;;;;2.25;0.90;;;20.80;24.30;;;;;;4996147;28;20749;-89
2022/09/14 10:46:44;;;;;;;3.05;1.02;;;20.60;99.90;;;;;;4995877;28;20219;-88
2022/09/14 10:49:48;;;;;;;2.30;0.90;;;20.60;99.90;;;;;;4982190;28;20180;-89
2022/09/14 10:52:38;;;;;;;1.33;0.63;;;20.60;99.90;;;;;;4980769;28;20176;-88
2022/09/14 10:55:35;;;;;;;3.03;1.00;;;20.70;95.40;;;;;;4975127;28;20200;-88
2022/09/14 10:58:38;;;;;;;4.13;1.00;;;20.70;99.90;;;;;;4980965;28;20230;-88
2022/09/14 11:01:49;;;;;;;2.65;0.77;;;20.70;1.00;;;;;;4978655;28;20276;-88
2022/09/14 11:04:55;;;;;;;2.38;1.08;;;20.70;1.00;;;;;;4958304;28;20207;-87
2022/09/14 11:07:48;;;;;;;4.05;1.05;;;20.60;1.00;;;;;;4986271;28;20678;-87
2022/09/14 11:10:28;;;;;;;3.13;0.95;;;20.40;1.00;;;;;;4992714;28;20901;-87
2022/09/14 11:12:57;;;;;;;3.60;1.17;;;20.30;99.90;;;;;;4983217;28;20206;-87
2022/09/14 11:15:41;;;;;;;4.28;1.20;;;20.10;29.70;;;;;;4986379;28;20209;-86
2022/09/14 11:18:19;;;;;;;4.72;1.05;;;20.00;1.00;;;;;;4986156;28;20181;-86
2022/09/14 11:20:54;;;;;;;2.85;1.10;;;20.10;99.90;;;;;;4978011;28;20169;-86
2022/09/14 11:23:35;;;;;;;4.88;1.25;;;19.90;1.00;;;;;;5003046;28;20311;-86
2022/09/14 11:26:11;;;;;;;2.72;0.98;;;20.00;99.90;;;;;;4978903;28;20220;-87
2022/09/14 11:28:51;;;;;;;4.30;0.90;;;20.20;99.90;;;;;;4984909;28;20180;-86
2022/09/14 11:31:33;;;;;;;4.10;1.00;;;20.20;1.00;;;;;;4985297;28;20184;-87
2022/09/14 11:34:22;;;;;;;2.10;0.80;;;20.30;35.80;;;;;;4981316;28;20276;-86
2022/09/14 11:37:07;;;;;;;1.85;0.60;;;20.30;99.90;;;;;;4999324;28;20274;-86
2022/09/14 11:39:53;;;;;;;2.92;1.10;;;20.50;1.00;;;;;;4985512;28;20215;-88
2022/09/14 11:42:26;;;;;;;3.15;0.93;;;20.50;1.00;;;;;;4985593;28;20241;-85
2022/09/14 11:45:03;;;;;;;3.85;0.88;;;20.60;23.40;;;;;;4985171;28;20278;-86
2022/09/14 11:47:38;;;;;;;2.72;0.88;;;20.40;99.90;;;;;;4986490;28;20188;-87
2022/09/14 11:50:13;;;;;;;4.60;0.68;;;20.30;1.00;;;;;;4984452;28;20187;-86
2022/09/14 11:52:46;;;;;;;3.33;0.90;;;20.50;90.90;;;;;;4986832;28;20251;-88
2022/09/14 11:55:18;;;;;;;4.43;1.17;;;20.40;1.00;;;;;;4978575;28;20564;-88
2022/09/14 11:57:46;;;;;;;2.78;0.90;;;20.30;1.00;;;;;;4986824;28;20176;-88
2022/09/14 12:00:48;;;;;;;3.85;1.08;;;20.40;1.00;;;;;;4995728;28;20185;-87
2022/09/14 12:03:24;;;;;;;2.05;0.80;;;20.10;46.20;;;;;;4997755;28;20195;-88
2022/09/14 12:05:50;;;;;;;2.33;0.85;;;20.20;1.00;;;;;;4986555;28;20214;-87
2022/09/14 12:08:37;;;;;;;4.35;0.80;;;20.20;1.00;;;;;;4986345;28;20176;-88
2022/09/14 12:11:09;;;;;;;4.10;1.02;;;20.30;1.00;;;;;;4987730;28;20180;-88
2022/09/14 12:14:15;;;;;;;2.28;0.70;;;20.30;99.90;;;;;;5002353;28;20188;-88
2022/09/14 12:17:12;;;;;;;2.17;0.70;;;20.40;1.00;;;;;;4969786;28;20227;-89
2022/09/14 12:19:38;;;;;;;3.35;0.80;;;19.90;99.90;;;;;;4984304;28;20585;-88
2022/09/14 12:22:24;;;;;;;1.98;0.60;;;19.70;99.90;;;;;;4980319;28;20232;-89
2022/09/14 12:25:16;;;;;;;4.07;1.10;;;19.80;99.90;;;;;;4994157;28;20235;-88
2022/09/14 12:27:44;;;;;;;2.65;1.00;;;19.60;99.90;;;;;;4980685;28;20192;-88
2022/09/14 12:30:34;;;;;;;4.32;1.02;;;19.60;1.00;;;;;;4980435;28;20184;-88
2022/09/14 12:33:01;;;;;;;2.70;0.70;;;19.30;1.00;;;;;;4984344;28;20191;-88
2022/09/14 12:35:33;;;;;;;1.60;0.70;;;19.50;1.00;;;;;;4982526;28;20204;-89
2022/09/14 12:38:19;;;;;;;3.33;0.90;;;19.50;1.00;;;;;;4978352;28;20180;-88
2022/09/14 12:42:02;;;;;;;4.65;1.10;;;19.60;99.90;;;;;;4985134;28;20215;-88
2022/09/14 12:44:28;;;;;;;2.15;0.77;;;19.40;1.00;;;;;;4899869;29;20188;-88
2022/09/14 12:46:54;;;;;;;2.58;0.70;;;19.50;1.00;;;;;;4898237;29;20226;-86
2022/09/14 12:49:33;;;;;;;1.90;0.68;;;19.40;81.20;;;;;;4943539;28;20573;-88
2022/09/14 12:52:09;;;;;;;2.35;0.98;;;19.50;1.00;;;;;;4982668;28;20270;-87
2022/09/14 12:54:55;;;;;;;3.95;1.00;;;19.30;99.90;;;;;;4984444;28;20677;-88
2022/09/14 12:57:28;;;;;;;3.85;0.90;;;19.10;1.00;;;;;;4984972;28;20214;-88
2022/09/14 12:59:54;;;;;;;2.40;0.95;;;19.00;1.00;;;;;;4986021;28;20681;-87
2022/09/14 13:03:00;;;;;;;3.70;1.33;;;18.90;99.90;;;;;;4998837;28;20198;-88
2022/09/14 13:05:28;;;;;;;3.55;0.82;;;18.70;99.90;;;;;;4983030;28;20219;-87
2022/09/14 13:07:55;;;;;;;1.70;0.82;;;18.60;1.00;;;;;;4986606;28;20668;-88
2022/09/14 13:10:38;;;;;;;5.20;1.08;;;18.50;1.00;;;;;;4982465;28;20199;-88
2022/09/14 13:13:25;;;;;;;2.40;0.65;;;18.50;1.00;;;;;;4986695;28;20184;-88
2022/09/14 13:16:03;;;;;;;2.58;0.85;;;18.60;99.90;;;;;;4991413;28;20670;-89
2022/09/14 13:18:34;;;;;;;1.70;0.70;;;18.60;1.00;;;;;;4991673;28;20206;-89